Time;durP1;ratioP1;P1;durP2;ratioP2;P2;SDS_P1;SDS_P2;PMS_P1;PMS_P2;Temp;Humidity;BMP_temperature;BMP_pressure;BME280_temperature;BME280_humidity;BME280_pressure;Samples;Min_cycle;Max_cycle;Signal;HPM_P1;HPM_P2
2020/12/26 00:02:07;;;;;;;1.40;0.20;;;;;;;0.72;98.19;101586.44;5004147;28;20280;-78
2020/12/26 00:04:34;;;;;;;1.67;0.40;;;;;;;0.67;97.93;101578.50;4991162;28;20186;-78
2020/12/26 00:07:01;;;;;;;1.58;0.28;;;;;;;0.67;97.84;101589.09;4992845;28;20251;-78
2020/12/26 00:09:26;;;;;;;2.25;0.28;;;;;;;0.64;98.17;101587.00;5007937;28;20173;-78
2020/12/26 00:11:52;;;;;;;1.50;0.20;;;;;;;0.65;98.20;101586.72;4994657;28;20216;-78
2020/12/26 00:14:18;;;;;;;1.60;0.20;;;;;;;0.68;97.98;101595.97;4989925;28;20230;-78
2020/12/26 00:16:44;;;;;;;1.30;0.10;;;;;;;0.66;98.49;101583.00;5003678;28;20217;-78
2020/12/26 00:19:14;;;;;;;1.40;0.10;;;;;;;0.65;98.36;101586.72;4992853;28;20181;-78
2020/12/26 00:21:41;;;;;;;1.40;0.10;;;;;;;0.67;98.75;101595.22;5009119;28;20187;-78
2020/12/26 00:24:07;;;;;;;1.50;0.10;;;;;;;0.66;98.40;101596.25;5001226;28;20257;-78
2020/12/26 00:26:33;;;;;;;1.67;0.10;;;;;;;0.71;98.79;101596.28;4993205;28;20190;-78
2020/12/26 00:28:58;;;;;;;1.40;0.10;;;;;;;0.66;98.89;101592.81;5014334;28;20194;-78
2020/12/26 00:31:24;;;;;;;1.30;0.10;;;;;;;0.61;100.00;101584.88;5010036;28;20611;-78
2020/12/26 00:33:49;;;;;;;1.57;0.13;;;;;;;0.64;99.93;101579.06;5011916;28;20198;-78
2020/12/26 00:36:15;;;;;;;1.30;0.10;;;;;;;0.62;99.89;101586.47;5013315;28;20197;-78
2020/12/26 00:38:41;;;;;;;1.40;0.10;;;;;;;0.69;100.00;101579.84;5000577;28;20863;-78
2020/12/26 00:41:11;;;;;;;1.97;0.20;;;;;;;0.69;100.00;101571.09;4993789;28;20189;-78
2020/12/26 00:43:37;;;;;;;1.30;0.10;;;;;;;0.65;100.00;101567.38;5002311;28;20270;-78
2020/12/26 00:46:02;;;;;;;2.00;0.43;;;;;;;0.64;100.00;101569.22;4997256;28;20272;-78
2020/12/26 00:48:28;;;;;;;1.33;0.10;;;;;;;0.68;100.00;101561.53;4994023;28;20191;-78
2020/12/26 00:50:54;;;;;;;1.30;0.10;;;;;;;0.70;100.00;101562.88;5006874;28;20198;-78
2020/12/26 00:53:19;;;;;;;2.03;0.20;;;;;;;0.66;100.00;101561.00;5007921;28;20467;-78
2020/12/26 00:55:45;;;;;;;2.92;0.40;;;;;;;0.67;100.00;101563.41;5005416;28;20580;-78
2020/12/26 00:58:11;;;;;;;1.30;0.10;;;;;;;0.66;100.00;101574.25;5001091;28;20177;-78
2020/12/26 01:00:37;;;;;;;1.77;0.27;;;;;;;0.68;100.00;101578.22;4996962;28;20178;-78
2020/12/26 01:03:22;;;;;;;1.55;0.20;;;;;;;0.67;100.00;101583.81;4995736;28;20205;-78
2020/12/26 01:05:47;;;;;;;1.37;0.13;;;;;;;0.67;100.00;101581.16;4999023;28;20187;-78
2020/12/26 01:08:13;;;;;;;1.43;0.13;;;;;;;0.64;100.00;101576.41;4993121;28;20188;-78
2020/12/26 01:10:38;;;;;;;1.93;0.20;;;;;;;0.68;100.00;101569.47;4997585;28;20182;-78
2020/12/26 01:13:04;;;;;;;5.40;0.70;;;;;;;0.67;100.00;101562.59;4991428;28;20209;-78
2020/12/26 01:15:29;;;;;;;1.40;0.10;;;;;;;0.72;100.00;101555.44;5001698;28;20276;-78
2020/12/26 01:17:55;;;;;;;1.30;0.10;;;;;;;0.72;100.00;101560.75;4998132;28;20268;-77
2020/12/26 01:20:20;;;;;;;1.30;0.10;;;;;;;0.70;100.00;101559.41;4988950;28;20182;-78
2020/12/26 01:22:46;;;;;;;1.50;0.20;;;;;;;0.72;100.00;101563.41;5002024;28;20205;-78
2020/12/26 01:25:12;;;;;;;1.30;0.10;;;;;;;0.71;100.00;101569.78;4996754;28;20925;-77
2020/12/26 01:27:38;;;;;;;1.40;0.10;;;;;;;0.76;100.00;101566.31;5013188;28;20272;-78
2020/12/26 01:30:05;;;;;;;1.30;0.20;;;;;;;0.79;100.00;101568.44;4988106;28;21003;-78
2020/12/26 01:32:51;;;;;;;1.73;0.28;;;;;;;0.78;100.00;101567.63;4998233;28;20210;-79
2020/12/26 01:35:17;;;;;;;1.40;0.20;;;;;;;0.62;100.00;101567.94;4946653;29;20206;-78
2020/12/26 01:37:42;;;;;;;1.30;0.10;;;;;;;0.70;100.00;101577.97;4945208;29;20243;-78
2020/12/26 01:40:10;;;;;;;1.30;0.10;;;;;;;0.47;100.00;101571.34;4934518;29;20254;-77
2020/12/26 01:42:36;;;;;;;1.40;0.20;;;;;;;0.60;100.00;101568.16;4939729;29;20230;-78
2020/12/26 01:45:03;;;;;;;1.30;0.13;;;;;;;0.68;100.00;101575.59;4940325;29;20238;-78
2020/12/26 01:47:30;;;;;;;1.90;0.30;;;;;;;0.70;100.00;101567.38;4937382;28;20204;-78
2020/12/26 01:49:55;;;;;;;1.50;0.40;;;;;;;0.72;100.00;101567.91;4924396;29;20176;-79
2020/12/26 01:52:21;;;;;;;1.40;0.10;;;;;;;0.65;100.00;101562.06;4951297;29;20226;-79
2020/12/26 01:54:47;;;;;;;1.30;0.10;;;;;;;0.50;100.00;101554.16;4951033;29;20209;-78
2020/12/26 01:57:12;;;;;;;1.50;0.37;;;;;;;0.47;100.00;101552.81;4954501;28;20196;-78
2020/12/26 01:59:38;;;;;;;1.30;0.07;;;;;;;0.33;100.00;101564.22;4961362;28;20445;-78
2020/12/26 02:02:09;;;;;;;2.80;0.50;;;;;;;0.46;100.00;101556.53;4958183;29;20308;-78
2020/12/26 02:04:35;;;;;;;1.30;0.10;;;;;;;0.45;100.00;101554.94;4954128;29;20537;-77
2020/12/26 02:07:04;;;;;;;1.57;0.20;;;;;;;0.28;100.00;101549.09;4951041;28;20261;-78
2020/12/26 02:09:30;;;;;;;1.70;0.20;;;;;;;0.35;100.00;101546.19;4938585;29;20238;-78
2020/12/26 02:11:55;;;;;;;1.40;0.20;;;;;;;0.32;100.00;101549.34;4967780;28;20234;-78
2020/12/26 02:14:22;;;;;;;1.90;0.20;;;;;;;0.39;100.00;101541.94;4999686;28;20805;-78
2020/12/26 02:16:49;;;;;;;1.30;0.10;;;;;;;0.45;100.00;101532.94;4993493;28;20204;-78
2020/12/26 02:19:20;;;;;;;1.98;0.10;;;;;;;0.41;100.00;101530.03;5005069;28;20219;-78
2020/12/26 02:21:46;;;;;;;1.67;0.30;;;;;;;0.35;100.00;101517.06;5000275;28;20187;-77
2020/12/26 02:24:11;;;;;;;1.40;0.20;;;;;;;0.33;100.00;101519.19;5005619;28;20239;-78
2020/12/26 02:26:38;;;;;;;1.30;0.10;;;;;;;0.32;100.00;101521.03;5001738;28;20213;-78
2020/12/26 02:29:05;;;;;;;1.60;0.40;;;;;;;0.01;100.00;101524.72;5012101;28;20205;-78
2020/12/26 02:31:31;;;;;;;1.70;0.30;;;;;;;-0.15;100.00;101529.19;5000870;28;20185;-77
2020/12/26 02:33:57;;;;;;;2.50;0.30;;;;;;;-0.08;100.00;101535.00;4994017;28;20290;-78
2020/12/26 02:36:23;;;;;;;1.50;0.20;;;;;;;-0.16;100.00;101535.53;5007142;28;20193;-78
2020/12/26 02:38:48;;;;;;;1.60;0.30;;;;;;;-0.08;100.00;101548.25;4997567;28;20185;-78
2020/12/26 02:41:14;;;;;;;2.50;0.43;;;;;;;-0.03;100.00;101536.88;5009376;28;20508;-78
2020/12/26 02:43:40;;;;;;;1.80;0.20;;;;;;;0.29;100.00;101528.72;5001569;28;20203;-78
2020/12/26 02:46:06;;;;;;;2.37;0.33;;;;;;;0.28;100.00;101524.47;5012352;28;20471;-78
2020/12/26 02:48:32;;;;;;;2.00;0.20;;;;;;;0.37;100.00;101522.91;5003676;28;20184;-78
2020/12/26 02:50:57;;;;;;;1.37;0.10;;;;;;;0.42;100.00;101514.94;4999010;28;20444;-78
2020/12/26 02:53:43;;;;;;;1.40;0.30;;;;;;;0.45;100.00;101512.53;5000298;28;20209;-78
2020/12/26 02:56:10;;;;;;;1.80;0.30;;;;;;;0.30;100.00;101495.88;4955425;28;20300;-78
2020/12/26 02:58:37;;;;;;;1.35;0.10;;;;;;;0.35;100.00;101498.53;4955700;28;20195;-78
2020/12/26 03:01:03;;;;;;;3.13;0.70;;;;;;;0.38;100.00;101500.63;4954273;28;20223;-78
2020/12/26 03:03:28;;;;;;;1.90;0.47;;;;;;;0.33;100.00;101498.78;4947091;28;20202;-78
2020/12/26 03:06:14;;;;;;;2.07;0.43;;;;;;;0.43;100.00;101495.31;4958282;28;20896;-78
2020/12/26 03:08:39;;;;;;;1.75;0.22;;;;;;;0.57;100.00;101497.19;4896883;29;20193;-78
2020/12/26 03:11:05;;;;;;;1.50;0.20;;;;;;;0.55;100.00;101503.78;4895309;29;20281;-78
2020/12/26 03:13:31;;;;;;;1.80;0.20;;;;;;;0.66;100.00;101500.88;4897670;29;20222;-78
2020/12/26 03:15:58;;;;;;;1.60;0.30;;;;;;;0.52;100.00;101502.47;4880738;29;20190;-78
2020/12/26 03:18:23;;;;;;;1.40;0.10;;;;;;;0.46;100.00;101502.75;4898089;29;20461;-78
2020/12/26 03:20:49;;;;;;;1.30;0.10;;;;;;;0.36;100.00;101500.09;4882090;29;20201;-78
2020/12/26 03:23:14;;;;;;;1.40;0.10;;;;;;;0.60;100.00;101499.28;4870713;29;20220;-78
2020/12/26 03:25:40;;;;;;;1.30;0.10;;;;;;;0.76;100.00;101484.94;4897822;29;20257;-78
2020/12/26 03:28:05;;;;;;;1.30;0.10;;;;;;;0.67;100.00;101477.81;4887970;29;20206;-79
2020/12/26 03:30:31;;;;;;;1.30;0.10;;;;;;;0.71;100.00;101479.69;4902336;29;20201;-78
2020/12/26 03:32:56;;;;;;;1.30;0.10;;;;;;;0.65;100.00;101474.66;4900359;29;20792;-78
2020/12/26 03:35:22;;;;;;;1.47;0.23;;;;;;;0.53;100.00;101476.78;4904624;29;20192;-78
2020/12/26 03:37:47;;;;;;;1.83;0.47;;;;;;;0.49;100.00;101471.22;4889374;29;20223;-78
2020/12/26 03:40:13;;;;;;;1.60;0.20;;;;;;;0.59;100.00;101465.13;4902765;29;20240;-78
2020/12/26 03:42:39;;;;;;;1.30;0.10;;;;;;;0.61;100.00;101470.94;4910729;29;20241;-77
2020/12/26 03:45:05;;;;;;;1.73;0.20;;;;;;;0.62;100.00;101467.25;4921281;28;21547;-78
2020/12/26 03:47:31;;;;;;;1.70;0.30;;;;;;;0.77;100.00;101472.50;5007029;28;20213;-79
2020/12/26 03:49:56;;;;;;;2.03;0.60;;;;;;;0.72;100.00;101465.34;4996576;28;20643;-78
2020/12/26 03:52:22;;;;;;;2.73;0.40;;;;;;;0.84;100.00;101479.09;4994851;28;20526;-78
2020/12/26 03:54:47;;;;;;;2.53;0.43;;;;;;;0.76;100.00;101477.00;4999822;28;20186;-78
2020/12/26 03:57:34;;;;;;;1.33;0.10;;;;;;;0.82;100.00;101467.97;4999837;28;20185;-78
2020/12/26 03:59:59;;;;;;;1.60;0.20;;;;;;;0.79;100.00;101475.69;4943477;29;20207;-78
2020/12/26 04:02:25;;;;;;;2.13;0.20;;;;;;;0.82;100.00;101470.63;4949401;28;20215;-78
2020/12/26 04:04:50;;;;;;;1.43;0.33;;;;;;;0.74;100.00;101468.53;4948033;29;20312;-78
2020/12/26 04:07:16;;;;;;;1.30;0.10;;;;;;;0.72;100.00;101472.50;4932587;29;20665;-78
2020/12/26 04:09:41;;;;;;;1.60;0.27;;;;;;;0.53;100.00;101460.88;4924363;29;20862;-78
2020/12/26 04:12:07;;;;;;;1.40;0.20;;;;;;;0.51;100.00;101455.88;4953090;28;20231;-78
2020/12/26 04:14:32;;;;;;;1.63;0.13;;;;;;;0.58;100.00;101447.66;4945601;29;20282;-78
2020/12/26 04:16:58;;;;;;;1.30;0.10;;;;;;;0.62;100.00;101443.41;4941407;29;20193;-78
2020/12/26 04:19:27;;;;;;;1.40;0.10;;;;;;;0.71;100.00;101449.72;4945609;29;20188;-78
2020/12/26 04:21:54;;;;;;;1.40;0.20;;;;;;;0.73;100.00;101444.94;4935972;29;20184;-78
2020/12/26 04:24:20;;;;;;;1.30;0.10;;;;;;;0.69;100.00;101443.91;4926293;29;20198;-78
2020/12/26 04:26:46;;;;;;;1.50;0.20;;;;;;;0.80;100.00;101434.84;4925863;29;20239;-78
2020/12/26 04:29:11;;;;;;;1.30;0.07;;;;;;;0.83;100.00;101434.31;4942856;29;20249;-78
2020/12/26 04:31:37;;;;;;;1.40;0.17;;;;;;;0.76;100.00;101431.94;4949263;29;20529;-78
2020/12/26 04:34:02;;;;;;;1.63;0.20;;;;;;;0.62;100.00;101428.28;4947722;28;20198;-78
2020/12/26 04:36:28;;;;;;;2.73;0.47;;;;;;;0.69;100.00;101433.31;4960768;28;20390;-78
2020/12/26 04:38:53;;;;;;;2.57;0.40;;;;;;;0.93;100.00;101436.91;4994988;28;20666;-78
2020/12/26 04:41:19;;;;;;;1.50;0.30;;;;;;;0.91;100.00;101436.41;4992867;28;20187;-78
2020/12/26 04:43:45;;;;;;;1.30;0.10;;;;;;;1.06;100.00;101428.41;4997723;28;20684;-78
2020/12/26 04:46:18;;;;;;;1.98;0.35;;;;;;;1.24;100.00;101437.59;4999225;28;20204;-78
2020/12/26 04:49:00;;;;;;;1.67;0.30;;;;;;;1.14;100.00;101435.00;5002922;28;20531;-78
2020/12/26 04:51:26;;;;;;;1.70;0.20;;;;;;;0.99;100.00;101425.22;4992809;28;21825;-78
2020/12/26 04:53:52;;;;;;;1.50;0.10;;;;;;;0.93;100.00;101422.88;5001085;28;20478;-78
2020/12/26 04:56:22;;;;;;;2.17;0.40;;;;;;;0.83;100.00;101429.03;4998187;28;20189;-78
2020/12/26 04:58:48;;;;;;;2.33;0.10;;;;;;;0.95;100.00;101410.16;4995919;28;20561;-78
2020/12/26 05:01:15;;;;;;;2.25;0.43;;;;;;;1.00;100.00;101410.94;5004311;28;20212;-78
2020/12/26 05:03:41;;;;;;;1.30;0.10;;;;;;;1.03;100.00;101413.03;4994156;28;20208;-78
2020/12/26 05:06:07;;;;;;;1.30;0.20;;;;;;;1.02;100.00;101411.44;5003337;28;20248;-78
2020/12/26 05:08:33;;;;;;;2.03;0.30;;;;;;;1.12;100.00;101418.56;4998539;28;20971;-78
2020/12/26 05:11:00;;;;;;;1.63;0.28;;;;;;;1.23;100.00;101418.25;4995970;28;20179;-78
2020/12/26 05:13:25;;;;;;;1.45;0.15;;;;;;;1.09;100.00;101416.44;4999924;28;20203;-78
2020/12/26 05:15:53;;;;;;;1.80;0.20;;;;;;;1.09;100.00;101419.88;5001141;28;20200;-78
2020/12/26 05:18:19;;;;;;;1.50;0.20;;;;;;;1.20;100.00;101418.00;4993129;28;20253;-78
2020/12/26 05:20:44;;;;;;;3.43;0.27;;;;;;;1.24;100.00;101419.03;4993940;28;20734;-78
2020/12/26 05:23:15;;;;;;;1.87;0.60;;;;;;;1.17;100.00;101414.03;4998579;28;20194;-78
2020/12/26 05:25:46;;;;;;;1.95;0.38;;;;;;;1.22;100.00;101421.94;4994563;28;20269;-78
2020/12/26 05:28:19;;;;;;;2.40;0.40;;;;;;;1.11;100.00;101414.31;5013771;28;20744;-78
2020/12/26 05:30:50;;;;;;;1.20;0.10;;;;;;;1.35;100.00;101416.06;5002947;28;20189;-78
2020/12/26 05:33:16;;;;;;;2.55;0.40;;;;;;;1.34;100.00;101416.31;5000542;28;20803;-78
2020/12/26 05:35:47;;;;;;;1.40;0.20;;;;;;;1.30;100.00;101415.25;5001682;28;20651;-78
2020/12/26 05:38:19;;;;;;;1.50;0.20;;;;;;;1.27;100.00;101413.97;5001564;28;20286;-78
2020/12/26 05:40:59;;;;;;;1.35;0.10;;;;;;;1.16;100.00;101417.72;4985832;28;20200;-78
2020/12/26 05:43:30;;;;;;;1.50;0.10;;;;;;;1.24;100.00;101406.53;4995940;28;20910;-78
2020/12/26 05:45:56;;;;;;;2.33;0.35;;;;;;;1.11;100.00;101403.69;5005087;28;20217;-78
2020/12/26 05:48:24;;;;;;;1.27;0.08;;;;;;;1.20;100.00;101424.06;5015101;28;20282;-78
2020/12/26 05:50:56;;;;;;;1.60;0.38;;;;;;;1.23;100.00;101412.13;4995719;28;20190;-78
2020/12/26 05:53:24;;;;;;;1.30;0.10;;;;;;;1.24;100.00;101408.44;4999127;28;20221;-78
2020/12/26 05:55:51;;;;;;;1.42;0.20;;;;;;;1.24;100.00;101409.19;4996311;28;20193;-79
2020/12/26 05:58:21;;;;;;;2.45;0.60;;;;;;;1.22;100.00;101406.03;5002248;28;20175;-78
2020/12/26 06:00:46;;;;;;;1.40;0.20;;;;;;;1.38;100.00;101404.88;4998045;28;20187;-78
2020/12/26 06:03:28;;;;;;;2.23;0.10;;;;;;;1.49;100.00;101392.34;5004907;28;20690;-78
2020/12/26 06:06:01;;;;;;;2.97;0.50;;;;;;;1.35;100.00;101400.13;5010674;28;20636;-78
2020/12/26 06:08:28;;;;;;;1.30;0.10;;;;;;;1.40;100.00;101402.75;5006443;28;20201;-78
2020/12/26 06:10:57;;;;;;;1.40;0.10;;;;;;;1.48;100.00;101393.41;5011840;28;20191;-79
2020/12/26 06:13:25;;;;;;;1.40;0.20;;;;;;;1.50;100.00;101397.38;5002157;28;20540;-78
2020/12/26 06:15:56;;;;;;;1.27;0.10;;;;;;;1.62;100.00;101394.38;5000059;28;20188;-78
2020/12/26 06:18:24;;;;;;;2.15;0.40;;;;;;;1.69;100.00;101386.88;4999138;28;20531;-78
2020/12/26 06:20:52;;;;;;;1.40;0.10;;;;;;;1.61;100.00;101377.66;5012450;28;20275;-78
2020/12/26 06:23:22;;;;;;;1.48;0.30;;;;;;;1.58;100.00;101383.53;4997670;28;20194;-78
2020/12/26 06:25:49;;;;;;;1.67;0.33;;;;;;;1.55;100.00;101384.06;5007849;28;20190;-78
2020/12/26 06:28:24;;;;;;;1.63;0.32;;;;;;;1.61;100.00;101390.94;5002234;28;20449;-78
2020/12/26 06:30:54;;;;;;;1.40;0.13;;;;;;;1.66;100.00;101382.94;5006361;28;20186;-79
2020/12/26 06:33:26;;;;;;;1.53;0.17;;;;;;;1.83;100.00;101385.19;5009397;28;20223;-78
2020/12/26 06:35:53;;;;;;;1.40;0.20;;;;;;;1.84;100.00;101384.91;5006401;28;20446;-79
2020/12/26 06:38:24;;;;;;;1.80;0.38;;;;;;;1.63;100.00;101390.66;5001355;28;20184;-79
2020/12/26 06:40:52;;;;;;;3.17;0.40;;;;;;;1.68;100.00;101387.97;5002106;28;20187;-78
2020/12/26 06:43:43;;;;;;;1.30;0.10;;;;;;;1.82;100.00;101383.59;4998380;28;20209;-78
2020/12/26 06:46:14;;;;;;;1.30;0.10;;;;;;;1.74;100.00;101381.56;5010391;28;20185;-78
2020/12/26 06:48:41;;;;;;;1.30;0.10;;;;;;;1.79;100.00;101376.19;5007029;28;20202;-78
2020/12/26 06:51:36;;;;;;;1.42;0.20;;;;;;;1.75;100.00;101389.25;5012633;28;20683;-78
2020/12/26 06:54:08;;;;;;;2.90;0.20;;;;;;;1.86;100.00;101383.84;4996931;28;20584;-78
2020/12/26 06:56:34;;;;;;;1.52;0.40;;;;;;;1.81;100.00;101393.44;5006304;28;20822;-78
2020/12/26 06:59:01;;;;;;;2.10;0.40;;;;;;;1.88;100.00;101387.78;5005127;28;20215;-78
2020/12/26 07:01:27;;;;;;;5.20;0.53;;;;;;;1.71;100.00;101388.19;5007774;28;20569;-78
2020/12/26 07:04:10;;;;;;;1.88;0.43;;;;;;;1.77;100.00;101387.09;4998791;28;20498;-78
2020/12/26 07:06:43;;;;;;;1.40;0.15;;;;;;;1.84;100.00;101392.06;4986645;28;20251;-78
2020/12/26 07:09:10;;;;;;;2.13;0.30;;;;;;;1.98;100.00;101385.06;4999440;28;20245;-78
2020/12/26 07:11:50;;;;;;;1.88;0.20;;;;;;;2.05;100.00;101390.84;5010028;28;20478;-78
2020/12/26 07:14:35;;;;;;;1.70;0.30;;;;;;;1.96;100.00;101394.34;5013679;28;20200;-78
2020/12/26 07:17:03;;;;;;;1.52;0.30;;;;;;;2.00;100.00;101401.50;4995325;28;20194;-78
2020/12/26 07:19:30;;;;;;;2.13;0.53;;;;;;;1.93;100.00;101392.28;4996612;28;20188;-78
2020/12/26 07:22:01;;;;;;;1.30;0.10;;;;;;;2.08;100.00;101397.44;4994231;28;20526;-78
2020/12/26 07:24:37;;;;;;;1.40;0.20;;;;;;;2.10;100.00;101390.00;4999575;28;20866;-78
2020/12/26 07:27:23;;;;;;;1.88;0.43;;;;;;;1.89;100.00;101383.28;4998988;28;20210;-78
2020/12/26 07:30:10;;;;;;;2.00;0.47;;;;;;;2.15;100.00;101376.69;5000066;28;20260;-78
2020/12/26 07:32:39;;;;;;;1.30;0.10;;;;;;;2.15;100.00;101366.84;5004435;28;20208;-78
2020/12/26 07:35:19;;;;;;;2.40;0.60;;;;;;;2.07;100.00;101370.09;4992115;28;20450;-78
2020/12/26 07:37:50;;;;;;;2.63;0.57;;;;;;;1.97;100.00;101380.03;5001416;28;20449;-78
2020/12/26 07:40:17;;;;;;;1.40;0.30;;;;;;;1.99;100.00;101380.53;4998482;28;20454;-78
2020/12/26 07:42:44;;;;;;;2.27;0.57;;;;;;;2.01;100.00;101381.84;5006978;28;20473;-78
2020/12/26 07:45:23;;;;;;;1.70;0.67;;;;;;;2.09;100.00;101385.78;5009418;28;20446;-78
2020/12/26 07:47:52;;;;;;;1.97;0.40;;;;;;;2.13;100.00;101384.13;5014878;28;20446;-77
2020/12/26 07:50:25;;;;;;;1.98;0.40;;;;;;;2.08;100.00;101386.81;4997961;28;20538;-78
2020/12/26 07:52:53;;;;;;;1.30;0.10;;;;;;;2.20;100.00;101389.91;4998487;28;20223;-77
2020/12/26 07:55:20;;;;;;;2.95;0.28;;;;;;;2.19;100.00;101381.13;5002783;28;20442;-78
2020/12/26 07:57:46;;;;;;;2.07;0.20;;;;;;;2.31;100.00;101384.22;5000510;28;20786;-78
2020/12/26 08:00:25;;;;;;;1.83;0.37;;;;;;;2.28;100.00;101386.66;5009811;28;20478;-78
2020/12/26 08:02:53;;;;;;;1.87;0.70;;;;;;;2.34;100.00;101383.63;5004375;28;20466;-79
2020/12/26 08:05:39;;;;;;;2.30;0.50;;;;;;;2.07;100.00;101379.94;5007128;28;20486;-78
2020/12/26 08:08:15;;;;;;;1.60;0.20;;;;;;;2.13;100.00;101384.13;5003871;28;20468;-77
2020/12/26 08:10:42;;;;;;;1.30;0.10;;;;;;;2.22;100.00;101385.09;5012377;28;20448;-78
2020/12/26 08:13:13;;;;;;;1.60;0.33;;;;;;;2.12;100.00;101382.53;5014362;28;20206;-78
2020/12/26 08:15:38;;;;;;;3.37;0.50;;;;;;;2.10;100.00;101390.78;4996632;28;20456;-78
2020/12/26 08:18:04;;;;;;;1.50;0.20;;;;;;;2.33;100.00;101392.69;5015881;28;20458;-78
2020/12/26 08:20:31;;;;;;;1.40;0.10;;;;;;;2.22;100.00;101395.72;5017487;28;20191;-78
2020/12/26 08:22:57;;;;;;;1.50;0.20;;;;;;;2.30;100.00;101389.81;5014748;28;20878;-78
2020/12/26 08:25:25;;;;;;;2.17;0.50;;;;;;;2.21;100.00;101391.47;5016615;28;20494;-79
2020/12/26 08:27:51;;;;;;;1.43;0.10;;;;;;;2.29;100.00;101386.34;5006317;28;20192;-78
2020/12/26 08:30:21;;;;;;;1.30;0.10;;;;;;;2.18;100.00;101386.75;5003834;28;20459;-79
2020/12/26 08:33:00;;;;;;;1.27;0.10;;;;;;;2.30;100.00;101390.63;5016815;28;20478;-78
2020/12/26 08:35:27;;;;;;;1.23;0.10;;;;;;;2.34;100.00;101390.84;5004392;28;20451;-79
2020/12/26 08:38:02;;;;;;;2.90;0.30;;;;;;;2.33;100.00;101389.25;5002734;28;20443;-79
2020/12/26 08:40:30;;;;;;;1.30;0.10;;;;;;;2.36;100.00;101383.38;5012000;28;20464;-79
2020/12/26 08:42:56;;;;;;;1.60;0.20;;;;;;;2.44;100.00;101396.81;5004031;28;20467;-78
2020/12/26 08:45:29;;;;;;;1.30;0.10;;;;;;;2.48;100.00;101386.41;5016530;28;20523;-78
2020/12/26 08:47:59;;;;;;;1.73;0.30;;;;;;;2.43;100.00;101384.63;4998275;28;20187;-78
2020/12/26 08:50:28;;;;;;;1.30;0.10;;;;;;;2.43;100.00;101386.47;5000760;28;20443;-79
2020/12/26 08:53:05;;;;;;;1.50;0.10;;;;;;;2.46;100.00;101383.25;5010609;28;20477;-78
2020/12/26 08:55:31;;;;;;;1.30;0.10;;;;;;;2.47;100.00;101385.66;4999688;28;20449;-79
2020/12/26 08:57:59;;;;;;;1.30;0.10;;;;;;;2.49;100.00;101385.34;5002728;28;20441;-78
2020/12/26 09:00:26;;;;;;;1.38;0.10;;;;;;;2.53;100.00;101378.41;5001054;28;20454;-79
2020/12/26 09:02:53;;;;;;;1.37;0.20;;;;;;;2.60;100.00;101373.53;5014526;28;20236;-78
2020/12/26 09:05:30;;;;;;;1.63;0.32;;;;;;;2.51;100.00;101365.41;5005429;28;20551;-79
2020/12/26 09:08:06;;;;;;;1.33;0.13;;;;;;;2.50;100.00;101358.50;5015656;28;20178;-79
2020/12/26 09:10:35;;;;;;;1.83;0.10;;;;;;;2.57;100.00;101364.28;5014970;28;20449;-74
2020/12/26 09:13:04;;;;;;;1.40;0.20;;;;;;;2.60;100.00;101353.06;5002235;28;20475;-78
2020/12/26 09:15:56;;;;;;;1.30;0.10;;;;;;;2.70;100.00;101355.59;4990170;28;20426;-79
2020/12/26 09:18:26;;;;;;;1.40;0.20;;;;;;;2.65;100.00;101360.97;5014210;28;20795;-78
2020/12/26 09:20:59;;;;;;;3.10;0.67;;;;;;;2.91;100.00;101353.47;5001043;28;20455;-78
2020/12/26 09:23:37;;;;;;;1.30;0.10;;;;;;;2.80;100.00;101352.03;5010589;28;20459;-79
2020/12/26 09:26:11;;;;;;;1.40;0.13;;;;;;;2.68;100.00;101351.63;5008213;28;20447;-78
2020/12/26 09:28:44;;;;;;;1.37;0.27;;;;;;;2.70;100.00;101352.16;5026960;28;20470;-77
2020/12/26 09:31:15;;;;;;;1.37;0.13;;;;;;;2.62;100.00;101350.91;5024445;28;20449;-78
2020/12/26 09:33:41;;;;;;;1.70;0.23;;;;;;;2.73;100.00;101346.25;5026150;28;20477;-78
2020/12/26 09:36:10;;;;;;;1.47;0.17;;;;;;;2.67;100.00;101352.72;5005440;28;20887;-77
2020/12/26 09:38:36;;;;;;;2.23;0.20;;;;;;;2.67;100.00;101352.72;5008969;28;20472;-78
2020/12/26 09:41:21;;;;;;;1.30;0.10;;;;;;;2.68;100.00;101347.13;5017916;28;20450;-78
2020/12/26 09:43:49;;;;;;;1.30;0.10;;;;;;;2.73;100.00;101340.94;5010393;28;20204;-78
2020/12/26 09:46:15;;;;;;;1.73;0.37;;;;;;;2.85;100.00;101338.66;5009001;28;20453;-78
2020/12/26 09:48:41;;;;;;;1.70;0.27;;;;;;;3.06;100.00;101344.50;5008994;28;20431;-78
2020/12/26 09:51:26;;;;;;;1.40;0.20;;;;;;;3.13;100.00;101334.28;5016706;28;20445;-79
2020/12/26 09:53:52;;;;;;;1.70;0.30;;;;;;;3.12;100.00;101327.38;5007277;28;20477;-78
2020/12/26 09:56:18;;;;;;;3.90;0.40;;;;;;;3.05;100.00;101313.66;5018931;28;20512;-79
2020/12/26 09:58:45;;;;;;;1.40;0.17;;;;;;;2.99;100.00;101322.78;5007323;28;20199;-78
2020/12/26 10:01:17;;;;;;;1.37;0.20;;;;;;;3.09;100.00;101318.13;5011097;28;20440;-78
2020/12/26 10:03:43;;;;;;;1.70;0.20;;;;;;;3.05;100.00;101311.00;5008811;28;20923;-77
2020/12/26 10:06:13;;;;;;;1.60;0.30;;;;;;;3.09;100.00;101315.47;5011144;28;20442;-79
2020/12/26 10:08:59;;;;;;;1.43;0.17;;;;;;;3.17;100.00;101306.84;5014330;28;20444;-79
2020/12/26 10:11:24;;;;;;;2.47;0.20;;;;;;;3.26;100.00;101309.63;4982321;28;20451;-77
2020/12/26 10:13:50;;;;;;;1.47;0.10;;;;;;;3.32;100.00;101300.47;4981512;28;20482;-78
2020/12/26 10:16:17;;;;;;;2.10;0.20;;;;;;;3.21;100.00;101289.22;4978130;28;20203;-79
2020/12/26 10:18:43;;;;;;;1.20;0.10;;;;;;;3.08;100.00;101291.81;4956666;28;20640;-79
2020/12/26 10:21:08;;;;;;;1.20;0.10;;;;;;;3.03;100.00;101281.22;4980519;28;20456;-77
2020/12/26 10:23:34;;;;;;;1.40;0.20;;;;;;;3.00;100.00;101281.81;4979414;28;20472;-79
2020/12/26 10:26:06;;;;;;;1.50;0.30;;;;;;;3.18;100.00;101263.16;4964443;28;20181;-77
2020/12/26 10:28:32;;;;;;;1.60;0.20;;;;;;;3.20;100.00;101269.00;4982013;28;20221;-78
2020/12/26 10:30:59;;;;;;;1.20;0.10;;;;;;;3.20;100.00;101271.66;4952922;28;20461;-77
2020/12/26 10:33:25;;;;;;;1.50;0.10;;;;;;;3.05;100.00;101263.91;4955155;28;20472;-77
2020/12/26 10:35:50;;;;;;;1.20;0.10;;;;;;;3.16;100.00;101260.00;4977060;28;20490;-79
2020/12/26 10:38:16;;;;;;;1.50;0.17;;;;;;;3.42;100.00;101261.19;4978339;28;20526;-77
2020/12/26 10:40:41;;;;;;;1.20;0.10;;;;;;;3.26;100.00;101248.41;4974472;28;20207;-78
2020/12/26 10:43:07;;;;;;;1.23;0.10;;;;;;;3.29;100.00;101250.50;4969076;28;20208;-78
2020/12/26 10:45:33;;;;;;;1.43;0.20;;;;;;;3.19;100.00;101253.31;4974850;28;20187;-79
2020/12/26 10:47:58;;;;;;;1.43;0.17;;;;;;;3.07;100.00;101260.97;4982138;28;20257;-77
2020/12/26 10:50:24;;;;;;;1.70;0.30;;;;;;;3.11;100.00;101249.47;5007759;28;20221;-78
2020/12/26 10:52:49;;;;;;;1.40;0.20;;;;;;;3.23;100.00;101244.44;5009830;28;20603;-79
2020/12/26 10:55:15;;;;;;;1.20;0.10;;;;;;;3.28;100.00;101236.41;5013719;28;20267;-77
2020/12/26 10:57:42;;;;;;;1.40;0.20;;;;;;;3.17;100.00;101219.03;5020093;28;20698;-77
2020/12/26 11:00:07;;;;;;;1.27;0.13;;;;;;;3.32;100.00;101226.75;5009651;28;20188;-78
2020/12/26 11:02:33;;;;;;;1.20;0.10;;;;;;;3.30;100.00;101220.94;5012059;28;21027;-78
2020/12/26 11:04:58;;;;;;;1.37;0.10;;;;;;;3.37;100.00;101207.25;5023007;28;20180;-78
2020/12/26 11:07:24;;;;;;;1.37;0.13;;;;;;;3.48;100.00;101201.44;5016394;28;20175;-78
2020/12/26 11:09:49;;;;;;;1.60;0.20;;;;;;;3.42;100.00;101210.63;5012895;28;20188;-79
2020/12/26 11:12:15;;;;;;;1.43;0.20;;;;;;;3.39;100.00;101216.53;5001795;28;20213;-78
2020/12/26 11:14:40;;;;;;;2.50;0.10;;;;;;;3.43;100.00;101206.88;5001753;28;20643;-78
2020/12/26 11:17:06;;;;;;;1.20;0.10;;;;;;;3.41;100.00;101214.34;5007392;28;20254;-78
2020/12/26 11:19:31;;;;;;;1.70;0.20;;;;;;;3.56;100.00;101203.44;5020567;28;20180;-79
2020/12/26 11:21:58;;;;;;;1.33;0.10;;;;;;;3.49;100.00;101211.03;5009415;28;20188;-78
2020/12/26 11:24:23;;;;;;;1.20;0.10;;;;;;;3.63;100.00;101200.41;5008643;28;20208;-79
2020/12/26 11:26:49;;;;;;;1.20;0.07;;;;;;;3.89;100.00;101192.72;5000790;28;20468;-79
2020/12/26 11:29:14;;;;;;;1.20;0.10;;;;;;;3.76;100.00;101182.81;5011711;28;20185;-79
2020/12/26 11:31:40;;;;;;;1.70;0.30;;;;;;;3.76;100.00;101185.50;5010004;28;20181;-79